Lake City, Kentucky
Current Conditions -  °F | °C
As of 4:15 PM on Wednesday 28 Jan 2015 (Local Time) from K5M9 Reporting Station
Clear Clear  
Wind Chill: 39°   Ceiling: Unl
Heat Index: 44°   Visibility: 10mi
Dew Point: 29°   Wind: 9mph
Humidity: 56%   Direction: 150°SSE
Pressure: 30.14"   Gusts: NA
Location:  37.0861°N, 88.2694°W
Report Text: K5M9 282215Z AUTO 15008KT 10SM CLR 07/M01 A3014 RMK AO2 T00681015
Loading
Personal Weather Stations






























Interactive Weather Map New forecast layout! Learn more

10-Day Weather Forecast

Advertisements
Track Severe Weather on mobile